Impacts METAR Board
IDs:

KJFK - New York/Kennedy Int, NY, US

Updated at: 2000 UTC 26 May 2019
Potential Impact None Slight Moderate High
Time 26/08Z 26/09Z 26/10Z 26/11Z 26/12Z 26/13Z 26/14Z 26/15Z 26/16Z 26/17Z 26/18Z 26/19Z 26/20Z
Temp60 60 61 64 66 71 73 77 80 82 83 82 78
Dewpt58 58 60 61 63 64 65 66 66 66 66 65 65
Altim29.96 29.96 29.97 29.97 29.96 29.96 29.96 29.95 29.93 29.92 29.91 29.88 29.88
VIS10 10 10 10 10 10 10 10 10 10 10 10 10
CIG21 90 250 250 13 -- -- -- -- 250 250 250 220
CoverOVCOVCBKNBKNBKNSCTFEWFEWSCTBKNBKNBKNBKN
FltCatMVFRVFRVFRVFRMVFRVFRVFRVFRVFRVFRVFRVFRVFR
WX--------------------------
WDir200240240280270270240230230230230190190
WSpd8 8 10 5 11 7 8 9 8 13 16 12 12
WGst-- -- -- -- -- -- -- -- -- -- 24 -- --
Raw hourly METARs
KJFK 260751Z 20008KT 10SM OVC021 16/14 A2996 RMK AO2 SLP145 T01560144
KJFK 260851Z 24008KT 10SM FEW017 OVC090 16/14 A2996 RMK AO2 SLP145 60000 T01560144 56008
KJFK 260951Z 24010KT 10SM FEW015 FEW085 BKN250 16/16 A2997 RMK AO2 SLP150 T01610156
KJFK 261051Z 28005KT 10SM SCT015 SCT090 BKN250 18/16 A2997 RMK AO2 SLP148 T01780161
KJFK 261151Z 27011KT 10SM BKN013 BKN100 BKN250 19/17 A2996 RMK AO2 SLP145 60000 70003 T01890172 10189 20150 58001
KJFK 261251Z 27007KT 10SM FEW012 FEW100 SCT250 22/18 A2996 RMK AO2 SLP144 T02170178
KJFK 261351Z 24008KT 10SM FEW050 FEW250 23/18 A2996 RMK AO2 SLP144 T02280183
KJFK 261451Z 23009KT 10SM FEW040 FEW250 25/19 A2995 RMK AO2 SLP143 T02500189 58002
KJFK 261551Z 23008KT 10SM FEW040 SCT250 27/19 A2993 RMK AO2 SLP136 T02670189
KJFK 261651Z 23013KT 10SM FEW045 BKN250 28/19 A2992 RMK AO2 SLP132 T02780189
KJFK 261751Z 23016G24KT 10SM FEW045 FEW130 BKN250 28/19 A2991 RMK AO2 SLP128 T02830189 10283 20189 56015
KJFK 261851Z 19012KT 10SM FEW050 SCT120 BKN250 28/18 A2988 RMK AO2 SLP118 T02780183
KJFK 261951Z 19012KT 10SM FEW050 SCT130 BKN220 26/18 A2988 RMK AO2 SLP116 T02560183



Page loaded:  20:58 UTC  |   01:58 PM Pacific  |   02:58 PM Mountain  |   03:58 PM Central  |   04:58 PM Eastern

 

ADVISORIES

FORECASTS

FORECASTS

OBSERVATIONS

USER TOOLS

ABOUT US